sensor_id;sensor_type;location;lat;lon;timestamp;P1;durP1;ratioP1;P2;durP2;ratioP2
23990;SDS011;12205;50.600;4.608;2022-08-19T00:01:56;24.65;;;8.40;;
23990;SDS011;12205;50.600;4.608;2022-08-19T00:04:26;29.15;;;8.90;;
23990;SDS011;12205;50.600;4.608;2022-08-19T00:06:57;24.45;;;8.70;;
23990;SDS011;12205;50.600;4.608;2022-08-19T00:09:26;31.35;;;8.98;;
23990;SDS011;12205;50.600;4.608;2022-08-19T00:11:54;32.72;;;10.95;;
23990;SDS011;12205;50.600;4.608;2022-08-19T00:14:23;34.88;;;11.88;;
23990;SDS011;12205;50.600;4.608;2022-08-19T00:16:55;37.42;;;12.32;;
23990;SDS011;12205;50.600;4.608;2022-08-19T00:19:23;53.00;;;18.30;;
23990;SDS011;12205;50.600;4.608;2022-08-19T00:21:52;31.83;;;10.85;;
23990;SDS011;12205;50.600;4.608;2022-08-19T00:24:22;33.85;;;12.15;;
23990;SDS011;12205;50.600;4.608;2022-08-19T00:26:50;31.65;;;11.30;;
23990;SDS011;12205;50.600;4.608;2022-08-19T00:29:19;33.20;;;11.98;;
23990;SDS011;12205;50.600;4.608;2022-08-19T00:31:48;34.72;;;11.85;;
23990;SDS011;12205;50.600;4.608;2022-08-19T00:34:18;33.45;;;11.60;;
23990;SDS011;12205;50.600;4.608;2022-08-19T00:36:45;36.67;;;12.43;;
23990;SDS011;12205;50.600;4.608;2022-08-19T00:39:14;36.45;;;12.40;;
23990;SDS011;12205;50.600;4.608;2022-08-19T00:41:44;50.38;;;16.33;;
23990;SDS011;12205;50.600;4.608;2022-08-19T00:44:14;39.75;;;12.57;;
23990;SDS011;12205;50.600;4.608;2022-08-19T00:46:46;47.85;;;16.00;;
23990;SDS011;12205;50.600;4.608;2022-08-19T00:49:17;33.22;;;11.80;;
23990;SDS011;12205;50.600;4.608;2022-08-19T00:51:51;33.70;;;12.10;;
23990;SDS011;12205;50.600;4.608;2022-08-19T00:54:26;38.97;;;12.63;;
23990;SDS011;12205;50.600;4.608;2022-08-19T00:56:58;38.38;;;12.82;;
23990;SDS011;12205;50.600;4.608;2022-08-19T01:01:55;35.90;;;12.13;;
23990;SDS011;12205;50.600;4.608;2022-08-19T01:04:22;32.83;;;11.95;;
23990;SDS011;12205;50.600;4.608;2022-08-19T01:06:49;37.58;;;12.52;;
23990;SDS011;12205;50.600;4.608;2022-08-19T01:09:16;51.20;;;17.10;;
23990;SDS011;12205;50.600;4.608;2022-08-19T01:11:44;37.53;;;13.27;;
23990;SDS011;12205;50.600;4.608;2022-08-19T01:14:12;36.97;;;13.25;;
23990;SDS011;12205;50.600;4.608;2022-08-19T01:16:41;36.05;;;13.50;;
23990;SDS011;12205;50.600;4.608;2022-08-19T01:19:14;43.10;;;14.10;;
23990;SDS011;12205;50.600;4.608;2022-08-19T01:21:52;39.80;;;14.20;;
23990;SDS011;12205;50.600;4.608;2022-08-19T01:24:28;44.83;;;14.40;;
23990;SDS011;12205;50.600;4.608;2022-08-19T01:26:55;41.75;;;14.18;;
23990;SDS011;12205;50.600;4.608;2022-08-19T01:29:24;42.00;;;14.30;;
23990;SDS011;12205;50.600;4.608;2022-08-19T01:31:51;43.40;;;14.88;;
23990;SDS011;12205;50.600;4.608;2022-08-19T01:34:18;37.80;;;13.30;;
23990;SDS011;12205;50.600;4.608;2022-08-19T01:36:46;40.72;;;14.43;;
23990;SDS011;12205;50.600;4.608;2022-08-19T01:39:15;38.92;;;13.88;;
23990;SDS011;12205;50.600;4.608;2022-08-19T01:41:48;44.08;;;15.10;;
23990;SDS011;12205;50.600;4.608;2022-08-19T01:44:17;40.67;;;13.40;;
23990;SDS011;12205;50.600;4.608;2022-08-19T01:46:46;33.15;;;11.30;;
23990;SDS011;12205;50.600;4.608;2022-08-19T01:49:15;33.90;;;12.30;;
23990;SDS011;12205;50.600;4.608;2022-08-19T01:51:44;40.78;;;12.48;;
23990;SDS011;12205;50.600;4.608;2022-08-19T01:54:11;38.30;;;13.35;;
23990;SDS011;12205;50.600;4.608;2022-08-19T01:56:42;40.40;;;14.02;;
23990;SDS011;12205;50.600;4.608;2022-08-19T01:59:11;40.42;;;13.57;;
23990;SDS011;12205;50.600;4.608;2022-08-19T02:01:43;38.33;;;13.18;;
23990;SDS011;12205;50.600;4.608;2022-08-19T02:04:11;49.72;;;16.52;;
23990;SDS011;12205;50.600;4.608;2022-08-19T02:06:39;37.58;;;12.93;;
23990;SDS011;12205;50.600;4.608;2022-08-19T02:09:06;36.08;;;12.93;;
23990;SDS011;12205;50.600;4.608;2022-08-19T02:11:35;37.00;;;12.43;;
23990;SDS011;12205;50.600;4.608;2022-08-19T02:14:05;43.28;;;13.35;;
23990;SDS011;12205;50.600;4.608;2022-08-19T02:16:36;39.65;;;13.40;;
23990;SDS011;12205;50.600;4.608;2022-08-19T02:19:05;38.72;;;13.05;;
23990;SDS011;12205;50.600;4.608;2022-08-19T02:21:32;34.97;;;11.65;;
23990;SDS011;12205;50.600;4.608;2022-08-19T02:24:00;41.72;;;13.82;;
23990;SDS011;12205;50.600;4.608;2022-08-19T02:26:28;40.53;;;13.60;;
23990;SDS011;12205;50.600;4.608;2022-08-19T02:28:55;42.08;;;13.73;;
23990;SDS011;12205;50.600;4.608;2022-08-19T02:31:23;47.20;;;16.63;;
23990;SDS011;12205;50.600;4.608;2022-08-19T02:33:54;36.55;;;12.43;;
23990;SDS011;12205;50.600;4.608;2022-08-19T02:36:23;38.42;;;12.98;;
23990;SDS011;12205;50.600;4.608;2022-08-19T02:38:51;44.15;;;12.93;;
23990;SDS011;12205;50.600;4.608;2022-08-19T02:41:19;39.53;;;13.43;;
23990;SDS011;12205;50.600;4.608;2022-08-19T02:43:49;34.90;;;12.60;;
23990;SDS011;12205;50.600;4.608;2022-08-19T02:46:17;44.28;;;15.25;;
23990;SDS011;12205;50.600;4.608;2022-08-19T02:48:47;38.72;;;12.95;;
23990;SDS011;12205;50.600;4.608;2022-08-19T02:51:17;40.72;;;14.40;;
23990;SDS011;12205;50.600;4.608;2022-08-19T02:53:46;47.60;;;15.50;;
23990;SDS011;12205;50.600;4.608;2022-08-19T02:56:13;43.97;;;14.20;;
23990;SDS011;12205;50.600;4.608;2022-08-19T02:58:41;46.10;;;14.35;;
23990;SDS011;12205;50.600;4.608;2022-08-19T03:01:09;46.28;;;15.30;;
23990;SDS011;12205;50.600;4.608;2022-08-19T03:03:37;36.95;;;12.55;;
23990;SDS011;12205;50.600;4.608;2022-08-19T03:06:06;40.10;;;13.38;;
23990;SDS011;12205;50.600;4.608;2022-08-19T03:08:42;42.53;;;13.52;;
23990;SDS011;12205;50.600;4.608;2022-08-19T03:11:13;38.75;;;13.43;;
23990;SDS011;12205;50.600;4.608;2022-08-19T03:13:42;41.13;;;13.80;;
23990;SDS011;12205;50.600;4.608;2022-08-19T03:16:09;39.10;;;13.50;;
23990;SDS011;12205;50.600;4.608;2022-08-19T03:18:37;43.42;;;13.93;;
23990;SDS011;12205;50.600;4.608;2022-08-19T03:21:05;71.60;;;25.08;;
23990;SDS011;12205;50.600;4.608;2022-08-19T03:23:33;55.55;;;18.33;;
23990;SDS011;12205;50.600;4.608;2022-08-19T03:26:03;47.15;;;15.32;;
23990;SDS011;12205;50.600;4.608;2022-08-19T03:28:32;43.28;;;15.15;;
23990;SDS011;12205;50.600;4.608;2022-08-19T03:31:00;42.33;;;14.20;;
23990;SDS011;12205;50.600;4.608;2022-08-19T03:33:31;50.63;;;15.73;;
23990;SDS011;12205;50.600;4.608;2022-08-19T03:36:04;44.53;;;14.75;;
23990;SDS011;12205;50.600;4.608;2022-08-19T03:38:34;47.10;;;14.45;;
23990;SDS011;12205;50.600;4.608;2022-08-19T03:41:05;44.08;;;14.90;;
23990;SDS011;12205;50.600;4.608;2022-08-19T03:43:35;45.55;;;14.77;;
23990;SDS011;12205;50.600;4.608;2022-08-19T03:46:04;49.20;;;16.50;;
23990;SDS011;12205;50.600;4.608;2022-08-19T03:48:35;62.07;;;20.37;;
23990;SDS011;12205;50.600;4.608;2022-08-19T03:51:04;43.40;;;14.65;;
23990;SDS011;12205;50.600;4.608;2022-08-19T03:53:32;49.00;;;16.38;;
23990;SDS011;12205;50.600;4.608;2022-08-19T03:56:01;50.22;;;16.20;;
23990;SDS011;12205;50.600;4.608;2022-08-19T03:58:30;47.38;;;15.68;;
23990;SDS011;12205;50.600;4.608;2022-08-19T04:00:57;46.22;;;15.40;;
23990;SDS011;12205;50.600;4.608;2022-08-19T04:03:25;47.58;;;14.98;;
23990;SDS011;12205;50.600;4.608;2022-08-19T04:05:52;43.55;;;14.98;;
23990;SDS011;12205;50.600;4.608;2022-08-19T04:08:20;50.92;;;16.05;;
23990;SDS011;12205;50.600;4.608;2022-08-19T04:10:47;50.92;;;16.23;;
23990;SDS011;12205;50.600;4.608;2022-08-19T04:13:16;54.33;;;16.88;;
23990;SDS011;12205;50.600;4.608;2022-08-19T04:15:45;51.10;;;17.23;;
23990;SDS011;12205;50.600;4.608;2022-08-19T04:18:12;48.80;;;16.05;;
23990;SDS011;12205;50.600;4.608;2022-08-19T04:20:41;51.22;;;16.30;;
23990;SDS011;12205;50.600;4.608;2022-08-19T04:23:09;42.63;;;13.75;;
23990;SDS011;12205;50.600;4.608;2022-08-19T04:25:38;49.30;;;15.27;;
23990;SDS011;12205;50.600;4.608;2022-08-19T04:28:07;52.15;;;16.60;;
23990;SDS011;12205;50.600;4.608;2022-08-19T04:30:38;50.13;;;16.27;;
23990;SDS011;12205;50.600;4.608;2022-08-19T04:33:08;54.40;;;17.75;;
23990;SDS011;12205;50.600;4.608;2022-08-19T04:35:37;53.13;;;17.02;;
23990;SDS011;12205;50.600;4.608;2022-08-19T04:38:07;72.85;;;23.20;;
23990;SDS011;12205;50.600;4.608;2022-08-19T04:40:39;55.30;;;15.98;;
23990;SDS011;12205;50.600;4.608;2022-08-19T04:43:25;73.18;;;21.85;;
23990;SDS011;12205;50.600;4.608;2022-08-19T04:45:52;52.83;;;17.15;;
23990;SDS011;12205;50.600;4.608;2022-08-19T04:48:21;53.45;;;17.98;;
23990;SDS011;12205;50.600;4.608;2022-08-19T04:50:51;54.40;;;17.25;;
23990;SDS011;12205;50.600;4.608;2022-08-19T04:53:23;58.30;;;18.38;;
23990;SDS011;12205;50.600;4.608;2022-08-19T04:55:53;62.95;;;18.02;;
23990;SDS011;12205;50.600;4.608;2022-08-19T04:58:22;56.00;;;18.05;;
23990;SDS011;12205;50.600;4.608;2022-08-19T05:00:50;60.50;;;19.25;;
23990;SDS011;12205;50.600;4.608;2022-08-19T05:03:17;64.53;;;19.27;;
23990;SDS011;12205;50.600;4.608;2022-08-19T05:05:47;72.38;;;22.48;;
23990;SDS011;12205;50.600;4.608;2022-08-19T05:08:16;63.58;;;18.65;;
23990;SDS011;12205;50.600;4.608;2022-08-19T05:10:47;59.67;;;19.75;;
23990;SDS011;12205;50.600;4.608;2022-08-19T05:13:18;55.35;;;17.38;;
23990;SDS011;12205;50.600;4.608;2022-08-19T05:15:53;50.88;;;16.35;;
23990;SDS011;12205;50.600;4.608;2022-08-19T05:18:21;52.88;;;16.70;;
23990;SDS011;12205;50.600;4.608;2022-08-19T05:21:08;53.03;;;16.65;;
23990;SDS011;12205;50.600;4.608;2022-08-19T05:23:55;43.90;;;14.27;;
23990;SDS011;12205;50.600;4.608;2022-08-19T05:26:22;59.85;;;16.70;;
23990;SDS011;12205;50.600;4.608;2022-08-19T05:28:50;48.22;;;15.90;;
23990;SDS011;12205;50.600;4.608;2022-08-19T05:31:18;56.05;;;16.52;;
23990;SDS011;12205;50.600;4.608;2022-08-19T05:33:45;51.45;;;16.98;;
23990;SDS011;12205;50.600;4.608;2022-08-19T05:36:14;57.17;;;18.38;;
23990;SDS011;12205;50.600;4.608;2022-08-19T05:38:41;68.85;;;21.45;;
23990;SDS011;12205;50.600;4.608;2022-08-19T05:41:09;49.65;;;15.57;;
23990;SDS011;12205;50.600;4.608;2022-08-19T05:43:38;48.60;;;15.93;;
23990;SDS011;12205;50.600;4.608;2022-08-19T05:46:05;50.78;;;16.05;;
23990;SDS011;12205;50.600;4.608;2022-08-19T05:48:34;50.90;;;16.67;;
23990;SDS011;12205;50.600;4.608;2022-08-19T05:51:04;52.53;;;18.15;;
23990;SDS011;12205;50.600;4.608;2022-08-19T05:53:34;56.83;;;17.27;;
23990;SDS011;12205;50.600;4.608;2022-08-19T05:56:03;54.35;;;17.08;;
23990;SDS011;12205;50.600;4.608;2022-08-19T05:58:32;53.20;;;16.95;;
23990;SDS011;12205;50.600;4.608;2022-08-19T06:00:59;57.78;;;17.75;;
23990;SDS011;12205;50.600;4.608;2022-08-19T06:03:29;58.47;;;18.77;;
23990;SDS011;12205;50.600;4.608;2022-08-19T06:05:57;82.10;;;26.13;;
23990;SDS011;12205;50.600;4.608;2022-08-19T06:08:25;61.83;;;19.58;;
23990;SDS011;12205;50.600;4.608;2022-08-19T06:10:54;69.75;;;22.48;;
23990;SDS011;12205;50.600;4.608;2022-08-19T06:13:22;65.35;;;21.33;;
23990;SDS011;12205;50.600;4.608;2022-08-19T06:15:50;66.25;;;21.60;;
23990;SDS011;12205;50.600;4.608;2022-08-19T06:18:17;68.97;;;21.92;;
23990;SDS011;12205;50.600;4.608;2022-08-19T06:20:44;69.75;;;21.00;;
23990;SDS011;12205;50.600;4.608;2022-08-19T06:23:12;54.92;;;18.20;;
23990;SDS011;12205;50.600;4.608;2022-08-19T06:25:40;63.10;;;19.50;;
23990;SDS011;12205;50.600;4.608;2022-08-19T06:28:08;72.85;;;23.63;;
23990;SDS011;12205;50.600;4.608;2022-08-19T06:30:36;50.88;;;15.10;;
23990;SDS011;12205;50.600;4.608;2022-08-19T06:33:03;48.08;;;14.77;;
23990;SDS011;12205;50.600;4.608;2022-08-19T06:35:30;51.38;;;14.45;;
23990;SDS011;12205;50.600;4.608;2022-08-19T06:37:57;42.08;;;12.50;;
23990;SDS011;12205;50.600;4.608;2022-08-19T06:40:24;45.35;;;13.00;;
23990;SDS011;12205;50.600;4.608;2022-08-19T06:42:52;37.20;;;11.27;;
23990;SDS011;12205;50.600;4.608;2022-08-19T06:45:23;33.85;;;11.02;;
23990;SDS011;12205;50.600;4.608;2022-08-19T06:47:51;41.75;;;10.98;;
23990;SDS011;12205;50.600;4.608;2022-08-19T06:50:21;47.03;;;13.48;;
23990;SDS011;12205;50.600;4.608;2022-08-19T06:52:48;40.03;;;11.40;;
23990;SDS011;12205;50.600;4.608;2022-08-19T06:55:16;36.17;;;11.38;;
23990;SDS011;12205;50.600;4.608;2022-08-19T06:57:43;36.97;;;11.18;;
23990;SDS011;12205;50.600;4.608;2022-08-19T07:00:11;34.60;;;10.07;;
23990;SDS011;12205;50.600;4.608;2022-08-19T07:02:40;34.20;;;10.25;;
23990;SDS011;12205;50.600;4.608;2022-08-19T07:05:08;33.35;;;9.60;;
23990;SDS011;12205;50.600;4.608;2022-08-19T07:07:36;34.45;;;9.45;;
23990;SDS011;12205;50.600;4.608;2022-08-19T07:10:03;35.13;;;9.45;;
23990;SDS011;12205;50.600;4.608;2022-08-19T07:12:31;31.38;;;8.85;;
23990;SDS011;12205;50.600;4.608;2022-08-19T07:14:59;36.65;;;10.07;;
23990;SDS011;12205;50.600;4.608;2022-08-19T07:17:27;54.45;;;15.70;;
23990;SDS011;12205;50.600;4.608;2022-08-19T07:19:55;34.58;;;9.95;;
23990;SDS011;12205;50.600;4.608;2022-08-19T07:22:23;37.72;;;9.70;;
23990;SDS011;12205;50.600;4.608;2022-08-19T07:24:50;30.35;;;8.20;;
23990;SDS011;12205;50.600;4.608;2022-08-19T07:27:17;31.20;;;8.43;;
23990;SDS011;12205;50.600;4.608;2022-08-19T07:29:45;33.15;;;8.35;;
23990;SDS011;12205;50.600;4.608;2022-08-19T07:32:12;28.02;;;8.43;;
23990;SDS011;12205;50.600;4.608;2022-08-19T07:34:39;30.60;;;8.30;;
23990;SDS011;12205;50.600;4.608;2022-08-19T07:37:19;29.35;;;9.00;;
23990;SDS011;12205;50.600;4.608;2022-08-19T07:39:46;45.85;;;13.75;;
23990;SDS011;12205;50.600;4.608;2022-08-19T07:42:14;27.13;;;8.60;;
23990;SDS011;12205;50.600;4.608;2022-08-19T07:44:43;30.45;;;8.80;;
23990;SDS011;12205;50.600;4.608;2022-08-19T07:47:10;31.27;;;7.85;;
23990;SDS011;12205;50.600;4.608;2022-08-19T07:49:40;27.15;;;7.60;;
23990;SDS011;12205;50.600;4.608;2022-08-19T07:52:08;25.52;;;7.60;;
23990;SDS011;12205;50.600;4.608;2022-08-19T07:54:38;26.73;;;7.97;;
23990;SDS011;12205;50.600;4.608;2022-08-19T07:57:06;26.08;;;7.90;;
23990;SDS011;12205;50.600;4.608;2022-08-19T07:59:34;26.27;;;7.43;;
23990;SDS011;12205;50.600;4.608;2022-08-19T08:02:02;28.95;;;8.25;;
23990;SDS011;12205;50.600;4.608;2022-08-19T08:04:31;30.75;;;8.45;;
23990;SDS011;12205;50.600;4.608;2022-08-19T08:07:16;38.83;;;11.65;;
23990;SDS011;12205;50.600;4.608;2022-08-19T08:10:02;25.45;;;7.50;;
23990;SDS011;12205;50.600;4.608;2022-08-19T08:12:33;44.80;;;13.98;;
23990;SDS011;12205;50.600;4.608;2022-08-19T08:15:07;26.52;;;7.65;;
23990;SDS011;12205;50.600;4.608;2022-08-19T08:17:41;28.42;;;8.10;;
23990;SDS011;12205;50.600;4.608;2022-08-19T08:20:09;28.27;;;8.65;;
23990;SDS011;12205;50.600;4.608;2022-08-19T08:22:37;31.80;;;9.43;;
23990;SDS011;12205;50.600;4.608;2022-08-19T08:25:28;34.75;;;9.88;;
23990;SDS011;12205;50.600;4.608;2022-08-19T08:27:56;25.23;;;7.57;;
23990;SDS011;12205;50.600;4.608;2022-08-19T08:30:25;26.85;;;7.57;;
23990;SDS011;12205;50.600;4.608;2022-08-19T08:32:54;26.08;;;7.50;;
23990;SDS011;12205;50.600;4.608;2022-08-19T08:35:22;25.58;;;7.72;;
23990;SDS011;12205;50.600;4.608;2022-08-19T08:37:51;19.30;;;5.80;;
23990;SDS011;12205;50.600;4.608;2022-08-19T08:40:21;32.40;;;9.02;;
23990;SDS011;12205;50.600;4.608;2022-08-19T08:43:05;23.77;;;6.65;;
23990;SDS011;12205;50.600;4.608;2022-08-19T08:45:53;28.27;;;7.55;;
23990;SDS011;12205;50.600;4.608;2022-08-19T08:48:30;24.65;;;7.38;;
23990;SDS011;12205;50.600;4.608;2022-08-19T08:51:08;44.33;;;14.27;;
23990;SDS011;12205;50.600;4.608;2022-08-19T08:53:40;24.42;;;7.57;;
23990;SDS011;12205;50.600;4.608;2022-08-19T08:56:12;24.10;;;7.47;;
23990;SDS011;12205;50.600;4.608;2022-08-19T08:58:42;27.67;;;8.18;;
23990;SDS011;12205;50.600;4.608;2022-08-19T09:01:17;23.83;;;6.95;;
23990;SDS011;12205;50.600;4.608;2022-08-19T09:03:45;26.48;;;7.72;;
23990;SDS011;12205;50.600;4.608;2022-08-19T09:06:14;24.45;;;7.43;;
23990;SDS011;12205;50.600;4.608;2022-08-19T09:08:54;22.92;;;6.93;;
23990;SDS011;12205;50.600;4.608;2022-08-19T09:11:33;21.60;;;6.65;;
23990;SDS011;12205;50.600;4.608;2022-08-19T09:14:21;29.38;;;8.32;;
23990;SDS011;12205;50.600;4.608;2022-08-19T09:17:02;21.70;;;6.75;;
23990;SDS011;12205;50.600;4.608;2022-08-19T09:19:33;29.38;;;7.50;;
23990;SDS011;12205;50.600;4.608;2022-08-19T09:22:02;25.30;;;7.70;;
23990;SDS011;12205;50.600;4.608;2022-08-19T09:24:30;19.48;;;6.05;;
23990;SDS011;12205;50.600;4.608;2022-08-19T09:26:58;25.75;;;7.55;;
23990;SDS011;12205;50.600;4.608;2022-08-19T09:29:26;38.58;;;12.88;;
23990;SDS011;12205;50.600;4.608;2022-08-19T09:31:54;28.25;;;7.80;;
23990;SDS011;12205;50.600;4.608;2022-08-19T09:34:21;29.27;;;8.38;;
23990;SDS011;12205;50.600;4.608;2022-08-19T09:36:48;21.27;;;6.68;;
23990;SDS011;12205;50.600;4.608;2022-08-19T09:39:18;24.48;;;7.68;;
23990;SDS011;12205;50.600;4.608;2022-08-19T09:41:45;31.98;;;9.23;;
23990;SDS011;12205;50.600;4.608;2022-08-19T09:44:13;32.50;;;9.52;;
23990;SDS011;12205;50.600;4.608;2022-08-19T09:46:41;29.30;;;9.27;;
23990;SDS011;12205;50.600;4.608;2022-08-19T09:49:08;27.63;;;8.60;;
23990;SDS011;12205;50.600;4.608;2022-08-19T09:51:35;43.88;;;15.00;;
23990;SDS011;12205;50.600;4.608;2022-08-19T09:54:03;28.30;;;8.65;;
23990;SDS011;12205;50.600;4.608;2022-08-19T09:56:31;28.63;;;8.75;;
23990;SDS011;12205;50.600;4.608;2022-08-19T09:58:59;25.40;;;7.40;;
23990;SDS011;12205;50.600;4.608;2022-08-19T10:01:31;27.05;;;8.30;;
23990;SDS011;12205;50.600;4.608;2022-08-19T10:04:00;24.95;;;7.68;;
23990;SDS011;12205;50.600;4.608;2022-08-19T10:06:29;25.27;;;7.57;;
23990;SDS011;12205;50.600;4.608;2022-08-19T10:08:58;25.10;;;7.60;;
23990;SDS011;12205;50.600;4.608;2022-08-19T10:11:25;30.27;;;9.05;;
23990;SDS011;12205;50.600;4.608;2022-08-19T10:13:54;26.55;;;8.27;;
23990;SDS011;12205;50.600;4.608;2022-08-19T10:16:22;27.98;;;8.73;;
23990;SDS011;12205;50.600;4.608;2022-08-19T10:18:52;37.30;;;12.07;;
23990;SDS011;12205;50.600;4.608;2022-08-19T10:21:20;32.63;;;9.95;;
23990;SDS011;12205;50.600;4.608;2022-08-19T10:23:50;33.95;;;10.85;;
23990;SDS011;12205;50.600;4.608;2022-08-19T10:26:23;41.42;;;12.15;;
23990;SDS011;12205;50.600;4.608;2022-08-19T10:28:53;40.93;;;12.20;;
23990;SDS011;12205;50.600;4.608;2022-08-19T10:31:22;38.30;;;12.15;;
23990;SDS011;12205;50.600;4.608;2022-08-19T10:33:57;29.08;;;9.23;;
23990;SDS011;12205;50.600;4.608;2022-08-19T10:36:26;31.67;;;9.60;;
23990;SDS011;12205;50.600;4.608;2022-08-19T10:38:57;28.77;;;9.43;;
23990;SDS011;12205;50.600;4.608;2022-08-19T10:41:29;28.27;;;8.88;;
23990;SDS011;12205;50.600;4.608;2022-08-19T10:46:27;39.55;;;13.50;;
23990;SDS011;12205;50.600;4.608;2022-08-19T10:48:59;24.70;;;7.57;;
23990;SDS011;12205;50.600;4.608;2022-08-19T10:51:27;27.98;;;8.45;;
23990;SDS011;12205;50.600;4.608;2022-08-19T10:54:12;23.70;;;7.50;;
23990;SDS011;12205;50.600;4.608;2022-08-19T10:56:39;23.85;;;6.38;;
23990;SDS011;12205;50.600;4.608;2022-08-19T10:59:18;24.60;;;7.32;;
23990;SDS011;12205;50.600;4.608;2022-08-19T11:01:49;25.40;;;7.70;;
23990;SDS011;12205;50.600;4.608;2022-08-19T11:04:19;24.40;;;7.32;;
23990;SDS011;12205;50.600;4.608;2022-08-19T11:06:48;24.45;;;7.57;;
23990;SDS011;12205;50.600;4.608;2022-08-19T11:09:15;25.80;;;8.15;;
23990;SDS011;12205;50.600;4.608;2022-08-19T11:11:49;28.45;;;8.00;;
23990;SDS011;12205;50.600;4.608;2022-08-19T11:14:17;35.47;;;10.63;;
23990;SDS011;12205;50.600;4.608;2022-08-19T11:16:47;20.40;;;6.22;;
23990;SDS011;12205;50.600;4.608;2022-08-19T11:19:15;21.05;;;6.70;;
23990;SDS011;12205;50.600;4.608;2022-08-19T11:21:46;24.17;;;6.70;;
23990;SDS011;12205;50.600;4.608;2022-08-19T11:24:15;21.67;;;7.03;;
23990;SDS011;12205;50.600;4.608;2022-08-19T11:26:46;25.88;;;6.88;;
23990;SDS011;12205;50.600;4.608;2022-08-19T11:29:16;24.40;;;6.80;;
23990;SDS011;12205;50.600;4.608;2022-08-19T11:31:47;23.37;;;7.53;;
23990;SDS011;12205;50.600;4.608;2022-08-19T11:34:17;24.55;;;6.88;;
23990;SDS011;12205;50.600;4.608;2022-08-19T11:39:18;21.80;;;6.57;;
23990;SDS011;12205;50.600;4.608;2022-08-19T11:41:48;32.70;;;9.95;;
23990;SDS011;12205;50.600;4.608;2022-08-19T11:44:15;20.40;;;5.93;;
23990;SDS011;12205;50.600;4.608;2022-08-19T11:46:43;25.00;;;7.40;;
23990;SDS011;12205;50.600;4.608;2022-08-19T11:49:12;19.80;;;6.22;;
23990;SDS011;12205;50.600;4.608;2022-08-19T11:51:40;22.75;;;6.43;;
23990;SDS011;12205;50.600;4.608;2022-08-19T11:54:10;22.80;;;6.85;;
23990;SDS011;12205;50.600;4.608;2022-08-19T11:56:41;25.75;;;7.55;;
23990;SDS011;12205;50.600;4.608;2022-08-19T11:59:08;26.02;;;7.88;;
23990;SDS011;12205;50.600;4.608;2022-08-19T12:01:36;29.83;;;8.90;;
23990;SDS011;12205;50.600;4.608;2022-08-19T12:04:06;28.85;;;8.52;;
23990;SDS011;12205;50.600;4.608;2022-08-19T12:06:33;27.15;;;8.63;;
23990;SDS011;12205;50.600;4.608;2022-08-19T12:09:06;45.35;;;14.70;;
23990;SDS011;12205;50.600;4.608;2022-08-19T12:11:37;24.00;;;7.60;;
23990;SDS011;12205;50.600;4.608;2022-08-19T12:14:06;22.92;;;6.72;;
23990;SDS011;12205;50.600;4.608;2022-08-19T12:16:37;21.70;;;6.53;;
23990;SDS011;12205;50.600;4.608;2022-08-19T12:19:04;24.60;;;7.93;;
23990;SDS011;12205;50.600;4.608;2022-08-19T12:21:33;20.70;;;6.32;;
23990;SDS011;12205;50.600;4.608;2022-08-19T12:24:02;20.10;;;6.32;;
23990;SDS011;12205;50.600;4.608;2022-08-19T12:26:33;18.30;;;5.60;;
23990;SDS011;12205;50.600;4.608;2022-08-19T12:29:02;21.13;;;6.30;;
23990;SDS011;12205;50.600;4.608;2022-08-19T12:31:30;19.35;;;5.85;;
23990;SDS011;12205;50.600;4.608;2022-08-19T12:33:58;19.98;;;5.90;;
23990;SDS011;12205;50.600;4.608;2022-08-19T12:36:27;31.35;;;9.60;;
23990;SDS011;12205;50.600;4.608;2022-08-19T12:38:55;17.80;;;4.95;;
23990;SDS011;12205;50.600;4.608;2022-08-19T12:41:24;14.45;;;4.63;;
23990;SDS011;12205;50.600;4.608;2022-08-19T12:43:53;16.45;;;5.35;;
23990;SDS011;12205;50.600;4.608;2022-08-19T12:46:20;20.20;;;5.55;;
23990;SDS011;12205;50.600;4.608;2022-08-19T12:48:47;14.80;;;5.22;;
23990;SDS011;12205;50.600;4.608;2022-08-19T12:51:16;17.40;;;5.53;;
23990;SDS011;12205;50.600;4.608;2022-08-19T12:53:45;16.95;;;5.65;;
23990;SDS011;12205;50.600;4.608;2022-08-19T12:56:14;16.85;;;5.15;;
23990;SDS011;12205;50.600;4.608;2022-08-19T12:58:42;29.30;;;9.23;;
23990;SDS011;12205;50.600;4.608;2022-08-19T13:01:12;22.02;;;6.82;;
23990;SDS011;12205;50.600;4.608;2022-08-19T13:03:42;19.73;;;5.97;;
23990;SDS011;12205;50.600;4.608;2022-08-19T13:06:12;21.43;;;6.63;;
23990;SDS011;12205;50.600;4.608;2022-08-19T13:08:41;19.48;;;6.28;;
23990;SDS011;12205;50.600;4.608;2022-08-19T13:11:09;27.85;;;8.48;;
23990;SDS011;12205;50.600;4.608;2022-08-19T13:16:08;31.02;;;8.80;;
23990;SDS011;12205;50.600;4.608;2022-08-19T13:18:38;23.65;;;7.45;;
23990;SDS011;12205;50.600;4.608;2022-08-19T13:21:09;20.13;;;6.63;;
23990;SDS011;12205;50.600;4.608;2022-08-19T13:23:38;27.58;;;8.75;;
23990;SDS011;12205;50.600;4.608;2022-08-19T13:26:07;44.53;;;13.93;;
23990;SDS011;12205;50.600;4.608;2022-08-19T13:28:38;23.52;;;7.97;;
23990;SDS011;12205;50.600;4.608;2022-08-19T13:31:26;29.42;;;9.65;;
23990;SDS011;12205;50.600;4.608;2022-08-19T13:34:14;19.35;;;5.70;;
23990;SDS011;12205;50.600;4.608;2022-08-19T13:36:44;19.42;;;5.78;;
23990;SDS011;12205;50.600;4.608;2022-08-19T13:39:12;19.20;;;5.90;;
23990;SDS011;12205;50.600;4.608;2022-08-19T13:41:43;16.88;;;4.65;;
23990;SDS011;12205;50.600;4.608;2022-08-19T13:44:13;19.83;;;5.90;;
23990;SDS011;12205;50.600;4.608;2022-08-19T13:46:42;18.30;;;5.53;;
23990;SDS011;12205;50.600;4.608;2022-08-19T13:49:10;20.88;;;6.40;;
23990;SDS011;12205;50.600;4.608;2022-08-19T13:51:40;22.45;;;6.55;;
23990;SDS011;12205;50.600;4.608;2022-08-19T13:54:08;18.05;;;5.80;;
23990;SDS011;12205;50.600;4.608;2022-08-19T13:56:39;21.75;;;6.20;;
23990;SDS011;12205;50.600;4.608;2022-08-19T13:59:08;35.58;;;11.63;;
23990;SDS011;12205;50.600;4.608;2022-08-19T14:01:37;26.55;;;5.63;;
23990;SDS011;12205;50.600;4.608;2022-08-19T14:04:07;18.45;;;5.10;;
23990;SDS011;12205;50.600;4.608;2022-08-19T14:06:35;17.45;;;5.15;;
23990;SDS011;12205;50.600;4.608;2022-08-19T14:09:02;19.45;;;5.43;;
23990;SDS011;12205;50.600;4.608;2022-08-19T14:11:30;19.15;;;5.30;;
23990;SDS011;12205;50.600;4.608;2022-08-19T14:13:57;23.65;;;5.47;;
23990;SDS011;12205;50.600;4.608;2022-08-19T14:16:24;11.95;;;4.28;;
23990;SDS011;12205;50.600;4.608;2022-08-19T14:18:52;24.85;;;6.22;;
23990;SDS011;12205;50.600;4.608;2022-08-19T14:21:21;29.60;;;8.60;;
23990;SDS011;12205;50.600;4.608;2022-08-19T14:26:18;14.75;;;4.68;;
23990;SDS011;12205;50.600;4.608;2022-08-19T14:28:47;16.42;;;4.60;;
23990;SDS011;12205;50.600;4.608;2022-08-19T14:31:15;18.88;;;5.70;;
23990;SDS011;12205;50.600;4.608;2022-08-19T14:33:45;23.77;;;5.70;;
23990;SDS011;12205;50.600;4.608;2022-08-19T14:36:17;21.42;;;5.97;;
23990;SDS011;12205;50.600;4.608;2022-08-19T14:38:47;15.68;;;4.75;;
23990;SDS011;12205;50.600;4.608;2022-08-19T14:41:17;23.55;;;6.10;;
23990;SDS011;12205;50.600;4.608;2022-08-19T14:43:50;16.67;;;4.45;;
23990;SDS011;12205;50.600;4.608;2022-08-19T14:46:20;14.48;;;4.22;;
23990;SDS011;12205;50.600;4.608;2022-08-19T14:48:50;31.73;;;9.35;;
23990;SDS011;12205;50.600;4.608;2022-08-19T14:51:18;13.55;;;4.82;;
23990;SDS011;12205;50.600;4.608;2022-08-19T14:53:48;18.58;;;5.53;;
23990;SDS011;12205;50.600;4.608;2022-08-19T14:56:17;22.77;;;6.05;;